Latest Weather Observations for Wattamolla

IDN60901

Issued at 4:31 am EDT Monday 8 February 2016 (issued every 10 minutes, with the page automatically refreshed every 10 minutes)

About weather observations | Map of Sydney area stations | Latest observations for Sydney area | Other Formats
Station Details ID: 066208 Name: WATTAMOLLA AWS Lat: -34.14 Lon: 151.12 Height: 44.0 m
Data from the previous 72 hours. | See also: Recent months for locations in New South Wales
Date/Time
EDT
Tmp

°C
App
Tmp
°C
Dew
Point
°C
Rel
Hum
%
Delta-T

°C
Wind Press
QNH
hPa
Press
MSL
hPa
Rain
since
9 am
mm
Dir
 
Spd
km/h
Gust
km/h
Spd
kts
Gust
kts
08/04:30am - - - - - SW 13 15 7 8 - - -
08/04:00am - - - - - SW 17 19 9 10 - - -
08/03:30am - - - - - SW 15 17 8 9 - - -
08/03:00am - - - - - SW 13 15 7 8 - - -
08/02:30am - - - - - SW 9 11 5 6 - - -
08/02:00am - - - - - SW 9 9 5 5 - - -
08/01:30am - - - - - WSW 7 9 4 5 - - -
08/01:00am - - - - - W 9 11 5 6 - - -
08/12:30am - - - - - WNW 9 11 5 6 - - -
08/12:00am - - - - - WNW 9 11 5 6 - - -
 
Date/Time
EDT
Tmp

°C
App
Tmp
°C
Dew
Point
°C
Rel
Hum
%
Delta-T

°C
Wind Press
QNH
hPa
Press
MSL
hPa
Rain
since
9 am
mm
Dir
 
Spd
km/h
Gust
km/h
Spd
kts
Gust
kts
07/11:30pm - - - - - NW 11 13 6 7 - - -
07/11:00pm - - - - - NW 9 11 5 6 - - -
07/10:30pm - - - - - NW 7 9 4 5 - - -
07/10:00pm - - - - - WSW 2 7 1 4 - - -
07/09:30pm - - - - - E 4 7 2 4 - - -
07/09:00pm - - - - - SE 13 15 7 8 - - -
07/08:30pm - - - - - SE 13 17 7 9 - - -
07/08:00pm - - - - - SSE 15 19 8 10 - - -
07/07:30pm - - - - - SSE 15 17 8 9 - - -
07/07:00pm - - - - - SSE 17 19 9 10 - - -
07/06:30pm - - - - - SE 17 22 9 12 - - -
07/06:00pm - - - - - SE 17 19 9 10 - - -
07/05:30pm - - - - - SSE 20 26 11 14 - - -
07/05:00pm - - - - - SSE 20 26 11 14 - - -
07/04:30pm - - - - - SSE 22 28 12 15 - - -
07/04:00pm - - - - - SE 19 24 10 13 - - -
07/03:30pm - - - - - SSE 19 26 10 14 - - -
07/03:00pm - - - - - SSE 20 26 11 14 - - -
07/02:30pm - - - - - SSE 20 28 11 15 - - -
07/02:00pm - - - - - SSE 22 26 12 14 - - -
07/01:30pm - - - - - S 24 30 13 16 - - -
07/01:00pm - - - - - S 26 30 14 16 - - -
07/12:30pm - - - - - S 28 32 15 17 - - -
07/12:00pm - - - - - S 28 33 15 18 - - -
07/11:30am - - - - - S 28 32 15 17 - - -
07/11:00am - - - - - S 24 32 13 17 - - -
07/10:30am - - - - - S 30 33 16 18 - - -
07/10:00am - - - - - S 28 35 15 19 - - -
07/09:30am - - - - - SSW 13 28 7 15 - - -
07/09:00am - - - - - S 19 35 10 19 - - -
07/08:30am - - - - - S 28 37 15 20 - - -
07/08:00am - - - - - S 33 39 18 21 - - -
07/07:30am - - - - - S 30 37 16 20 - - -
07/07:00am - - - - - S 15 22 8 12 - - -
07/06:30am - - - - - S 20 30 11 16 - - -
07/06:00am - - - - - S 24 35 13 19 - - -
07/05:30am - - - - - S 28 33 15 18 - - -
07/05:00am - - - - - S 20 30 11 16 - - -
07/04:30am - - - - - SW 11 17 6 9 - - -
07/04:00am - - - - - SSE 17 22 9 12 - - -
07/03:30am - - - - - SSE 17 28 9 15 - - -
07/03:00am - - - - - SSE 19 24 10 13 - - -
07/02:30am - - - - - SSE 17 24 9 13 - - -
07/02:00am - - - - - SSE 20 26 11 14 - - -
07/01:30am - - - - - SSE 19 24 10 13 - - -
07/01:00am - - - - - SSE 15 17 8 9 - - -
07/12:30am - - - - - SSE 17 19 9 10 - - -
07/12:00am - - - - - SSE 19 24 10 13 - - -
 
Date/Time
EDT
Tmp

°C
App
Tmp
°C
Dew
Point
°C
Rel
Hum
%
Delta-T

°C
Wind Press
QNH
hPa
Press
MSL
hPa
Rain
since
9 am
mm
Dir
 
Spd
km/h
Gust
km/h
Spd
kts
Gust
kts
06/11:30pm - - - - - SE 26 30 14 16 - - -
06/11:00pm - - - - - SSE 22 30 12 16 - - -
06/10:30pm - - - - - SSE 24 30 13 16 - - -
06/10:00pm - - - - - SSE 24 32 13 17 - - -
06/09:30pm - - - - - SSE 28 33 15 18 - - -
06/09:00pm - - - - - SE 26 30 14 16 - - -
06/08:30pm - - - - - SE 26 30 14 16 - - -
06/08:00pm - - - - - SE 26 32 14 17 - - -
06/07:30pm - - - - - SE 28 33 15 18 - - -
06/07:00pm - - - - - SSE 28 32 15 17 - - -
06/06:30pm - - - - - SE 30 33 16 18 - - -
06/06:00pm - - - - - SSE 32 37 17 20 - - -
06/05:30pm - - - - - SSE 32 35 17 19 - - -
06/05:00pm - - - - - SE 30 33 16 18 - - -
06/04:30pm - - - - - SE 33 37 18 20 - - -
06/04:00pm - - - - - SE 32 37 17 20 - - -
06/03:30pm - - - - - SE 30 33 16 18 - - -
06/03:00pm - - - - - SE 30 33 16 18 - - -
06/02:30pm - - - - - SE 32 35 17 19 - - -
06/02:00pm - - - - - SE 30 35 16 19 - - -
06/01:30pm - - - - - SE 30 33 16 18 - - -
06/01:00pm - - - - - SE 28 33 15 18 - - -
06/12:30pm - - - - - SE 22 32 12 17 - - -
06/12:00pm - - - - - SSE 37 48 20 26 - - -
06/11:30am - - - - - SE 32 39 17 21 - - -
06/11:00am - - - - - SSE 33 39 18 21 - - -
06/10:30am - - - - - SSE 32 37 17 20 - - -
06/10:00am - - - - - SSE 39 44 21 24 - - -
06/09:30am - - - - - - - - - - - - -
06/09:00am - - - - - SE 22 37 12 20 - - -
06/08:46am - - - - - SSE 28 50 15 27 - - -
06/08:30am - - - - - SE 39 54 21 29 - - -
06/08:00am - - - - - SSE 37 54 20 29 - - -
06/07:30am - - - - - SSE 44 54 24 29 - - -
06/07:00am - - - - - SSE 43 54 23 29 - - -
06/06:30am - - - - - SSE 41 56 22 30 - - -
06/06:00am - - - - - SSE 43 54 23 29 - - -
06/05:30am - - - - - SSE 41 54 22 29 - - -
06/05:00am - - - - - SSE 35 50 19 27 - - -
06/04:30am - - - - - SSE 37 48 20 26 - - -
06/04:00am - - - - - SSE 39 50 21 27 - - -
06/03:30am - - - - - SSE 43 52 23 28 - - -
06/03:00am - - - - - SSE 48 57 26 31 - - -
06/02:30am - - - - - SSE 46 57 25 31 - - -
06/02:00am - - - - - SSE 46 59 25 32 - - -
06/01:30am - - - - - SSE 41 56 22 30 - - -
06/01:00am - - - - - SSE 39 52 21 28 - - -
06/12:30am - - - - - SSE 44 57 24 31 - - -
06/12:00am - - - - - SSE 43 56 23 30 - - -
 
Date/Time
EDT
Tmp

°C
App
Tmp
°C
Dew
Point
°C
Rel
Hum
%
Delta-T

°C
Wind Press
QNH
hPa
Press
MSL
hPa
Rain
since
9 am
mm
Dir
 
Spd
km/h
Gust
km/h
Spd
kts
Gust
kts
05/11:30pm - - - - - SSE 48 59 26 32 - - -
05/11:00pm - - - - - SSE 43 59 23 32 - - -
05/10:54pm - - - - - SSE 41 59 22 32 - - -
05/10:30pm - - - - - SSE 43 59 23 32 - - -
05/10:00pm - - - - - SSE 46 57 25 31 - - -
05/09:30pm - - - - - SSE 48 59 26 32 - - -
05/09:00pm - - - - - SSE 46 61 25 33 - - -
05/08:30pm - - - - - SSE 48 59 26 32 - - -
05/08:00pm - - - - - SSE 50 63 27 34 - - -
05/07:30pm - - - - - SSE 44 59 24 32 - - -
05/07:00pm - - - - - SSE 50 61 27 33 - - -
05/06:30pm - - - - - SSE 46 59 25 32 - - -
05/06:00pm - - - - - SSE 46 57 25 31 - - -
05/05:30pm - - - - - SSE 46 59 25 32 - - -
05/05:00pm - - - - - SSE 52 63 28 34 - - -
05/04:30pm - - - - - SSE 48 61 26 33 - - -
05/04:00pm - - - - - SSE 48 59 26 32 - - -
05/03:30pm - - - - - SSE 54 67 29 36 - - -
05/03:08pm - - - - - SSE 50 69 27 37 - - -
05/03:00pm - - - - - SSE 50 61 27 33 - - -
05/02:30pm - - - - - SSE 50 63 27 34 - - -
05/02:00pm - - - - - SSE 54 67 29 36 - - -
05/01:30pm - - - - - SSE 57 69 31 37 - - -
05/01:00pm - - - - - SSE 57 67 31 36 - - -
05/12:30pm - - - - - SSE 50 61 27 33 - - -
05/12:00pm - - - - - SSE 54 63 29 34 - - -
05/11:30am - - - - - SSE 57 69 31 37 - - -
05/11:00am - - - - - SSE 54 65 29 35 - - -
05/10:30am - - - - - SSE 57 72 31 39 - - -
05/10:17am - - - - - SSE 57 76 31 41 - - -
05/10:00am - - - - - SSE 57 74 31 40 - - -
05/09:30am - - - - - SSE 61 74 33 40 - - -
05/09:00am - - - - - SSE 57 74 31 40 - - -
05/08:48am - - - - - SSE 39 74 21 40 - - -
05/08:47am - - - - - SSE 35 70 19 38 - - -
05/08:46am - - - - - SSE 33 52 18 28 - - -
05/08:36am - - - - - SSE 46 63 25 34 - - -
05/08:31am - - - - - SSE 56 74 30 40 - - -
05/08:30am - - - - - SSE 57 74 31 40 - - -
05/08:03am - - - - - SSE 46 65 25 35 - - -
05/08:00am - - - - - SSE 48 65 26 35 - - -
05/07:30am - - - - - SSE 59 82 32 44 - - -
05/07:26am - - - - - SSE 54 74 29 40 - - -
05/07:24am - - - - - SSE 54 74 29 40 - - -
05/07:06am - - - - - SSE 69 85 37 46 - - -
05/07:00am - - - - - SSE 70 85 38 46 - - -
05/06:59am - - - - - SSE 70 85 38 46 - - -
05/06:33am - - - - - SSE 56 74 30 40 - - -
05/06:30am - - - - - SSE 59 74 32 40 - - -
05/06:00am - - - - - SSE 56 80 30 43 - - -
05/05:52am - - - - - SSE 57 80 31 43 - - -
05/05:30am - - - - - SSE 59 74 32 40 - - -
05/05:00am - - - - - SSE 61 74 33 40 - - -

Latest Capital City Observations: Canberra | Sydney | Melbourne | Brisbane | Adelaide | Perth | Hobart | Darwin

Other Formats:

Comma delimited format used in spreadsheet applications
http://www.bom.gov.au/fwo/IDN60901/IDN60901.95752.axf

JavaScript Object Notation format (JSON) in row-major order
http://www.bom.gov.au/fwo/IDN60901/IDN60901.95752.json